Time;durP1;ratioP1;P1;durP2;ratioP2;P2;SDS_P1;SDS_P2;PMS_P1;PMS_P2;Temp;Humidity;BMP_temperature;BMP_pressure;BME280_temperature;BME280_humidity;BME280_pressure;Samples;Min_cycle;Max_cycle;Signal;HPM_P1;HPM_P2
2022/08/17 00:01:02;;;;;;;;;;;21.80;99.90;;;;;;5101442;28;20509;-66
2022/08/17 00:03:32;;;;;;;;;;;21.80;99.90;;;;;;5106855;28;20018;-67
2022/08/17 00:06:00;;;;;;;;;;;21.80;99.90;;;;;;5113043;28;20407;-66
2022/08/17 00:08:28;;;;;;;;;;;21.90;99.90;;;;;;5111488;28;19930;-66
2022/08/17 00:10:55;;;;;;;;;;;22.00;99.90;;;;;;5112299;28;19924;-64
2022/08/17 00:13:24;;;;;;;;;;;22.10;99.90;;;;;;5111207;28;19924;-65
2022/08/17 00:15:52;;;;;;;;;;;22.10;99.90;;;;;;5107238;28;20026;-65
2022/08/17 00:18:18;;;;;;;;;;;22.10;99.90;;;;;;5112172;28;20368;-65
2022/08/17 00:20:46;;;;;;;;;;;22.20;99.90;;;;;;5107445;28;19924;-64
2022/08/17 00:23:14;;;;;;;;;;;22.10;99.90;;;;;;5109147;28;20346;-64
2022/08/17 00:25:41;;;;;;;;;;;22.10;99.90;;;;;;5108560;28;20394;-64
2022/08/17 00:28:08;;;;;;;;;;;22.00;99.90;;;;;;5111968;28;19970;-64
2022/08/17 00:30:35;;;;;;;;;;;21.80;99.90;;;;;;5113642;28;19975;-65
2022/08/17 00:33:07;;;;;;;;;;;21.80;99.90;;;;;;5107872;28;19969;-64
2022/08/17 00:35:34;;;;;;;;;;;21.70;99.90;;;;;;5098242;28;19931;-65
2022/08/17 00:38:05;;;;;;;;;;;21.60;99.90;;;;;;5105247;28;19924;-65
2022/08/17 00:40:31;;;;;;;;;;;21.60;99.90;;;;;;5110128;28;20385;-65
2022/08/17 00:43:06;;;;;;;;;;;21.60;99.90;;;;;;5110302;28;20174;-65
2022/08/17 00:45:33;;;;;;;;;;;21.70;99.90;;;;;;5112187;28;20547;-65
2022/08/17 00:48:00;;;;;;;;;;;21.70;99.90;;;;;;5109146;28;20026;-64
2022/08/17 00:50:27;;;;;;;;;;;21.60;99.90;;;;;;5109381;28;20022;-66
2022/08/17 00:52:55;;;;;;;;;;;21.60;99.90;;;;;;5110241;28;20446;-65
2022/08/17 00:55:25;;;;;;;;;;;21.40;99.90;;;;;;5106574;28;19928;-64
2022/08/17 00:57:53;;;;;;;;;;;21.40;99.90;;;;;;5101099;28;20008;-65
2022/08/17 01:00:25;;;;;;;;;;;21.50;99.90;;;;;;5102395;28;20007;-64
2022/08/17 01:02:54;;;;;;;;;;;21.60;99.90;;;;;;5111412;28;19923;-64
2022/08/17 01:05:23;;;;;;;;;;;21.60;99.90;;;;;;5111975;28;19924;-65
2022/08/17 01:07:50;;;;;;;;;;;21.50;99.90;;;;;;5110024;28;19924;-65
2022/08/17 01:10:18;;;;;;;;;;;21.60;99.90;;;;;;5107605;28;19932;-66
2022/08/17 01:12:46;;;;;;;;;;;21.60;99.90;;;;;;5101395;28;19924;-66
2022/08/17 01:15:12;;;;;;;;;;;21.60;99.90;;;;;;5108347;28;19924;-65
2022/08/17 01:17:39;;;;;;;;;;;21.50;99.90;;;;;;5108694;28;19963;-66
2022/08/17 01:20:06;;;;;;;;;;;21.20;99.90;;;;;;5109263;28;20014;-66
2022/08/17 01:22:35;;;;;;;;;;;21.10;99.90;;;;;;5100197;28;19923;-66
2022/08/17 01:25:05;;;;;;;;;;;21.00;99.90;;;;;;5112907;28;20573;-66
2022/08/17 01:27:31;;;;;;;;;;;21.00;99.90;;;;;;5110518;28;20457;-66
2022/08/17 01:30:00;;;;;;;;;;;21.10;99.90;;;;;;5109755;28;19928;-63
2022/08/17 01:32:29;;;;;;;;;;;21.10;99.90;;;;;;5109643;28;20014;-64
2022/08/17 01:34:56;;;;;;;;;;;21.10;99.90;;;;;;5102971;28;19985;-65
2022/08/17 01:37:27;;;;;;;;;;;21.20;99.90;;;;;;5109255;28;19967;-64
2022/08/17 01:39:56;;;;;;;;;;;21.20;99.90;;;;;;5110837;28;20003;-64
2022/08/17 01:42:26;;;;;;;;;;;21.20;99.90;;;;;;5107790;28;20583;-64
2022/08/17 01:44:55;;;;;;;;;;;21.30;99.90;;;;;;5106929;28;19924;-64
2022/08/17 01:47:22;;;;;;;;;;;21.30;99.90;;;;;;5109027;28;20019;-64
2022/08/17 01:49:49;;;;;;;;;;;21.20;99.90;;;;;;5110550;28;20305;-64
2022/08/17 01:52:16;;;;;;;;;;;21.20;99.90;;;;;;5108166;28;20316;-64
2022/08/17 01:54:44;;;;;;;;;;;21.20;99.90;;;;;;5099816;28;19924;-64
2022/08/17 01:57:13;;;;;;;;;;;21.20;99.90;;;;;;5110217;28;20247;-64
2022/08/17 01:59:39;;;;;;;;;;;21.20;99.90;;;;;;5109734;28;19927;-64
2022/08/17 02:02:07;;;;;;;;;;;21.20;99.90;;;;;;5111025;28;20010;-64
2022/08/17 02:04:34;;;;;;;;;;;21.30;99.90;;;;;;5109715;28;19986;-65
2022/08/17 02:07:00;;;;;;;;;;;21.40;99.90;;;;;;5109165;28;20018;-64
2022/08/17 02:09:28;;;;;;;;;;;21.40;99.90;;;;;;5108098;28;19924;-65
2022/08/17 02:11:55;;;;;;;;;;;21.30;99.90;;;;;;5112039;28;19931;-65
2022/08/17 02:14:24;;;;;;;;;;;21.30;99.90;;;;;;5108615;28;20010;-65
2022/08/17 02:16:51;;;;;;;;;;;21.30;99.90;;;;;;5108721;28;19930;-64
2022/08/17 02:19:18;;;;;;;;;;;21.30;99.90;;;;;;5108736;28;20338;-65
2022/08/17 02:21:46;;;;;;;;;;;21.30;99.90;;;;;;5110746;28;19934;-65
2022/08/17 02:24:20;;;;;;;;;;;21.20;99.90;;;;;;5108796;28;19931;-64
2022/08/17 02:26:47;;;;;;;;;;;21.30;99.90;;;;;;5099381;28;19924;-65
2022/08/17 02:29:14;;;;;;;;;;;21.40;99.90;;;;;;5112276;28;19930;-65
2022/08/17 02:31:42;;;;;;;;;;;21.40;99.90;;;;;;5116827;27;19931;-65
2022/08/17 02:34:09;;;;;;;;;;;21.40;99.90;;;;;;5116550;28;20015;-65
2022/08/17 02:36:36;;;;;;;;;;;21.40;99.90;;;;;;5118920;28;19935;-65
2022/08/17 02:39:04;;;;;;;;;;;21.50;99.90;;;;;;5115708;28;20299;-65
2022/08/17 02:41:31;;;;;;;;;;;21.50;99.90;;;;;;5117084;28;20360;-64
2022/08/17 02:43:57;;;;;;;;;;;21.60;99.90;;;;;;5114441;28;19924;-65
2022/08/17 02:46:24;;;;;;;;;;;21.60;99.90;;;;;;5117155;28;20022;-65
2022/08/17 02:48:52;;;;;;;;;;;21.60;99.90;;;;;;5116390;28;20405;-65
2022/08/17 02:51:19;;;;;;;;;;;21.60;99.90;;;;;;5117354;28;19924;-64
2022/08/17 02:53:46;;;;;;;;;;;21.50;99.90;;;;;;5115442;28;20397;-65
2022/08/17 02:56:13;;;;;;;;;;;21.60;99.90;;;;;;5117034;28;19927;-64
2022/08/17 02:58:39;;;;;;;;;;;21.40;99.90;;;;;;5115789;28;20027;-65
2022/08/17 03:01:07;;;;;;;;;;;21.20;99.90;;;;;;5117352;28;19923;-65
2022/08/17 03:03:34;;;;;;;;;;;21.10;99.90;;;;;;5108630;28;19924;-65
2022/08/17 03:06:03;;;;;;;;;;;21.20;99.90;;;;;;5118567;28;20371;-64
2022/08/17 03:08:30;;;;;;;;;;;21.20;99.90;;;;;;5114480;28;19950;-65
2022/08/17 03:10:56;;;;;;;;;;;21.30;99.90;;;;;;5117182;28;20066;-65
2022/08/17 03:13:23;;;;;;;;;;;21.30;99.90;;;;;;5116673;28;19999;-65
2022/08/17 03:15:50;;;;;;;;;;;21.20;99.90;;;;;;5112663;28;19923;-65
2022/08/17 03:18:18;;;;;;;;;;;21.20;99.90;;;;;;5114753;28;19924;-65
2022/08/17 03:20:45;;;;;;;;;;;21.10;99.90;;;;;;5116373;28;19984;-65
2022/08/17 03:23:13;;;;;;;;;;;21.00;99.90;;;;;;5114628;28;20011;-66
2022/08/17 03:25:41;;;;;;;;;;;21.00;99.90;;;;;;5107463;28;19923;-66
2022/08/17 03:28:08;;;;;;;;;;;20.90;99.90;;;;;;5114675;28;19931;-65
2022/08/17 03:30:35;;;;;;;;;;;21.00;99.90;;;;;;5115879;28;20336;-65
2022/08/17 03:33:03;;;;;;;;;;;20.90;99.90;;;;;;5109552;28;20027;-65
2022/08/17 03:35:31;;;;;;;;;;;21.00;99.90;;;;;;5112133;28;20017;-64
2022/08/17 03:37:58;;;;;;;;;;;21.00;99.90;;;;;;5114833;28;20010;-65
2022/08/17 03:40:26;;;;;;;;;;;21.00;99.90;;;;;;5108702;28;20159;-65
2022/08/17 03:42:53;;;;;;;;;;;21.00;99.90;;;;;;5110318;28;20437;-65
2022/08/17 03:56:41;;;;;;;;;;;20.90;99.90;;;;;;5110421;28;20015;-65
2022/08/17 03:56:43;;;;;;;;;;;20.90;99.90;;;;;;5106072;28;19934;-64
2022/08/17 03:59:11;;;;;;;;;;;20.90;99.90;;;;;;5107356;28;19963;-64
2022/08/17 04:01:37;;;;;;;;;;;20.90;99.90;;;;;;5109841;28;20275;-65
2022/08/17 04:04:04;;;;;;;;;;;20.90;99.90;;;;;;5111273;28;19930;-65
2022/08/17 04:06:31;;;;;;;;;;;20.90;99.90;;;;;;5113531;28;20002;-65
2022/08/17 04:08:58;;;;;;;;;;;21.00;99.90;;;;;;5109808;28;19978;-66
2022/08/17 04:11:24;;;;;;;;;;;21.00;99.90;;;;;;5112208;28;19947;-65
2022/08/17 04:13:52;;;;;;;;;;;21.00;99.90;;;;;;5109916;28;19962;-65
2022/08/17 04:16:19;;;;;;;;;;;21.00;99.90;;;;;;5112658;28;20036;-65
2022/08/17 04:18:46;;;;;;;;;;;21.00;99.90;;;;;;5108444;28;20010;-65
2022/08/17 04:21:12;;;;;;;;;;;21.10;99.90;;;;;;5110874;28;20015;-64
2022/08/17 04:23:39;;;;;;;;;;;21.00;99.90;;;;;;5107595;28;20305;-66
2022/08/17 04:26:06;;;;;;;;;;;21.00;99.90;;;;;;5111119;28;19930;-66
2022/08/17 04:28:32;;;;;;;;;;;21.00;99.90;;;;;;5109562;28;19966;-66
2022/08/17 04:31:00;;;;;;;;;;;21.00;99.90;;;;;;5110343;28;20027;-65
2022/08/17 04:33:28;;;;;;;;;;;21.10;99.90;;;;;;5112107;28;19967;-65
2022/08/17 04:35:56;;;;;;;;;;;21.00;99.90;;;;;;5112425;28;19924;-66
2022/08/17 04:38:24;;;;;;;;;;;21.00;99.90;;;;;;5108653;28;20000;-66
2022/08/17 04:43:36;;;;;;;;;;;21.10;99.90;;;;;;5109673;28;19931;-66
2022/08/17 04:46:05;;;;;;;;;;;21.20;99.90;;;;;;5110920;28;20599;-65
2022/08/17 04:48:33;;;;;;;;;;;21.20;99.90;;;;;;5107650;28;20007;-66
2022/08/17 04:51:00;;;;;;;;;;;21.30;99.90;;;;;;5108979;28;19931;-65
2022/08/17 04:53:27;;;;;;;;;;;21.30;99.90;;;;;;5109018;28;20620;-65
2022/08/17 04:55:56;;;;;;;;;;;21.20;99.90;;;;;;5104442;28;19928;-66
2022/08/17 04:58:22;;;;;;;;;;;21.20;99.90;;;;;;5109793;28;19924;-65
2022/08/17 05:00:49;;;;;;;;;;;21.20;99.90;;;;;;5113045;28;20022;-65
2022/08/17 05:03:17;;;;;;;;;;;21.20;99.90;;;;;;5107912;28;19938;-65
2022/08/17 05:05:48;;;;;;;;;;;21.30;99.90;;;;;;5097898;28;19924;-66
2022/08/17 05:08:15;;;;;;;;;;;21.20;99.90;;;;;;5111418;28;19924;-65
2022/08/17 05:10:42;;;;;;;;;;;21.20;99.90;;;;;;5112459;28;19923;-66
2022/08/17 05:13:11;;;;;;;;;;;21.20;99.90;;;;;;5109035;28;19924;-66
2022/08/17 05:15:39;;;;;;;;;;;21.20;99.90;;;;;;5108805;28;20011;-66
2022/08/17 05:18:06;;;;;;;;;;;21.30;99.90;;;;;;5106960;28;20014;-65
2022/08/17 05:20:35;;;;;;;;;;;21.30;99.90;;;;;;5103253;28;20011;-66
2022/08/17 05:23:05;;;;;;;;;;;21.30;99.90;;;;;;5110404;28;20382;-65
2022/08/17 05:25:34;;;;;;;;;;;21.30;99.90;;;;;;5109204;28;19931;-65
2022/08/17 05:28:00;;;;;;;;;;;21.40;99.90;;;;;;5109964;28;20500;-65
2022/08/17 05:30:27;;;;;;;;;;;21.40;99.90;;;;;;5109261;28;20242;-65
2022/08/17 05:32:55;;;;;;;;;;;21.50;99.90;;;;;;5110136;28;20020;-66
2022/08/17 05:35:22;;;;;;;;;;;21.60;99.90;;;;;;5111633;28;19927;-65
2022/08/17 05:37:50;;;;;;;;;;;21.60;99.90;;;;;;5110093;28;20386;-65
2022/08/17 05:40:17;;;;;;;;;;;21.70;99.90;;;;;;5110883;28;19967;-65
2022/08/17 05:42:44;;;;;;;;;;;21.70;99.90;;;;;;5108586;28;19924;-67
2022/08/17 05:45:11;;;;;;;;;;;21.70;99.90;;;;;;5110616;28;19923;-65
2022/08/17 05:47:38;;;;;;;;;;;21.60;99.90;;;;;;5104095;28;19931;-66
2022/08/17 05:50:05;;;;;;;;;;;21.60;99.90;;;;;;5108403;28;19928;-66
2022/08/17 05:52:35;;;;;;;;;;;21.60;99.90;;;;;;5104615;28;20039;-66
2022/08/17 05:55:07;;;;;;;;;;;21.60;99.90;;;;;;5108955;28;20402;-66
2022/08/17 05:57:49;;;;;;;;;;;21.50;99.90;;;;;;5108628;28;19924;-65
2022/08/17 06:00:17;;;;;;;;;;;21.50;99.90;;;;;;5109539;28;20026;-65
2022/08/17 06:02:52;;;;;;;;;;;21.60;99.90;;;;;;5107434;28;19938;-65
2022/08/17 06:05:25;;;;;;;;;;;21.70;99.90;;;;;;5109530;28;19924;-65
2022/08/17 06:07:55;;;;;;;;;;;21.90;99.90;;;;;;5103531;28;20006;-65
2022/08/17 06:10:35;;;;;;;;;;;21.90;99.90;;;;;;5094125;28;19928;-66
2022/08/17 06:13:07;;;;;;;;;;;21.80;99.90;;;;;;5103663;28;20022;-66
2022/08/17 06:15:41;;;;;;;;;;;21.70;99.90;;;;;;5109631;28;19931;-65
2022/08/17 06:18:09;;;;;;;;;;;21.70;99.90;;;;;;5104951;28;19998;-66
2022/08/17 06:20:42;;;;;;;;;;;21.60;99.90;;;;;;5110165;28;19930;-65
2022/08/17 06:23:10;;;;;;;;;;;21.50;99.90;;;;;;5106884;28;19924;-65
2022/08/17 06:25:42;;;;;;;;;;;21.50;99.90;;;;;;5109699;28;19924;-64
2022/08/17 06:28:15;;;;;;;;;;;21.40;99.90;;;;;;5108699;28;19923;-64
2022/08/17 06:30:47;;;;;;;;;;;21.30;99.90;;;;;;5107176;28;19931;-64
2022/08/17 06:33:19;;;;;;;;;;;21.30;99.90;;;;;;5104255;28;19931;-65
2022/08/17 06:35:51;;;;;;;;;;;21.30;99.90;;;;;;5110017;28;19930;-65
2022/08/17 06:38:23;;;;;;;;;;;21.20;99.90;;;;;;5110156;28;19967;-65
2022/08/17 06:40:55;;;;;;;;;;;21.10;99.90;;;;;;5101234;28;20705;-65
2022/08/17 06:43:31;;;;;;;;;;;21.10;99.90;;;;;;5103276;28;19935;-65
2022/08/17 06:46:00;;;;;;;;;;;21.10;99.90;;;;;;5105450;28;19932;-65
2022/08/17 06:48:32;;;;;;;;;;;21.10;99.90;;;;;;5102928;28;19927;-65
2022/08/17 06:51:00;;;;;;;;;;;21.00;99.90;;;;;;5106403;28;19938;-65
2022/08/17 06:53:29;;;;;;;;;;;21.00;99.90;;;;;;5103904;28;19932;-65
2022/08/17 06:56:01;;;;;;;;;;;21.00;99.90;;;;;;5100974;28;19931;-65
2022/08/17 06:58:30;;;;;;;;;;;21.00;99.90;;;;;;5097628;28;20006;-65
2022/08/17 07:00:59;;;;;;;;;;;21.00;99.90;;;;;;5104062;28;19947;-65
2022/08/17 07:03:32;;;;;;;;;;;21.00;99.90;;;;;;5102943;28;20594;-65
2022/08/17 07:06:00;;;;;;;;;;;21.00;99.90;;;;;;5094671;28;19939;-66
2022/08/17 07:08:32;;;;;;;;;;;20.30;99.90;;;;;;5103738;28;19936;-65
2022/08/17 07:11:02;;;;;;;;;;;20.90;99.90;;;;;;5106265;28;19931;-66
2022/08/17 07:13:33;;;;;;;;;;;20.90;99.90;;;;;;5103376;28;20333;-66
2022/08/17 07:16:07;;;;;;;;;;;20.90;99.90;;;;;;5104336;28;19938;-66
2022/08/17 07:18:34;;;;;;;;;;;20.90;99.90;;;;;;5101779;28;20304;-66
2022/08/17 07:21:08;;;;;;;;;;;20.80;99.90;;;;;;5101575;28;20042;-65
2022/08/17 07:23:39;;;;;;;;;;;21.00;99.90;;;;;;5098614;28;20366;-64
2022/08/17 07:26:08;;;;;;;;;;;20.90;99.90;;;;;;5101132;28;20386;-65
2022/08/17 07:28:35;;;;;;;;;;;20.90;99.90;;;;;;5099878;28;19965;-65
2022/08/17 07:31:03;;;;;;;;;;;20.90;99.90;;;;;;5110065;28;19938;-64
2022/08/17 07:33:32;;;;;;;;;;;20.90;99.90;;;;;;5107152;28;20026;-64
2022/08/17 07:35:59;;;;;;;;;;;20.90;99.90;;;;;;5107813;28;20026;-65
2022/08/17 07:38:27;;;;;;;;;;;20.90;99.90;;;;;;5106260;28;20005;-65
2022/08/17 07:41:02;;;;;;;;;;;21.00;99.90;;;;;;5105033;28;19942;-65
2022/08/17 07:43:31;;;;;;;;;;;21.00;99.90;;;;;;5104170;28;19927;-65
2022/08/17 07:48:47;;;;;;;;;;;20.90;99.90;;;;;;5110626;28;19931;-65
2022/08/17 07:51:20;;;;;;;;;;;20.90;99.90;;;;;;5107859;28;19931;-66
2022/08/17 07:53:46;;;;;;;;;;;20.90;99.90;;;;;;5104655;28;19934;-64
2022/08/17 07:56:31;;;;;;;;;;;20.90;99.90;;;;;;5106000;28;19966;-65
2022/08/17 07:59:07;;;;;;;;;;;20.80;99.90;;;;;;5108705;28;19939;-65
2022/08/17 08:01:36;;;;;;;;;;;20.80;99.90;;;;;;5108834;28;20015;-65
2022/08/17 08:04:15;;;;;;;;;;;20.80;99.90;;;;;;5095049;28;20007;-64
2022/08/17 08:06:46;;;;;;;;;;;20.80;99.90;;;;;;5106170;28;20400;-65
2022/08/17 08:09:27;;;;;;;;;;;20.70;99.90;;;;;;5110734;28;19930;-65
2022/08/17 08:11:54;;;;;;;;;;;20.80;99.90;;;;;;5107018;28;19934;-65
2022/08/17 08:14:21;;;;;;;;;;;;;;;;;;5103401;28;20011;-65
2022/08/17 08:16:48;;;;;;;;;;;;;;;;;;5110494;28;19924;-65
2022/08/17 08:19:15;;;;;;;;;;;;;;;;;;5110643;28;20006;-65
2022/08/17 08:21:42;;;;;;;;;;;;;;;;;;5111047;28;19923;-65
2022/08/17 08:24:09;;;;;;;;;;;;;;;;;;5109562;28;19924;-65
2022/08/17 08:26:36;;;;;;;;;;;;;;;;;;5112105;28;19947;-64
2022/08/17 08:29:03;;;;;;;;;;;;;;;;;;5099802;28;19928;-64
2022/08/17 08:31:30;;;;;;;;;;;;;;;;;;5104300;28;20022;-65
2022/08/17 08:33:58;;;;;;;;;;;;;;;;;;5109790;28;19996;-65
2022/08/17 08:36:38;;;;;;;;;;;21.20;99.90;;;;;;5110815;28;19974;-65
2022/08/17 08:39:09;;;;;;;;;;;21.20;99.90;;;;;;5105884;28;21557;-64
2022/08/17 08:41:41;;;;;;;;;;;21.10;99.90;;;;;;5092709;28;19928;-66
2022/08/17 08:44:19;;;;;;;;;;;21.10;99.90;;;;;;5098904;28;19931;-66
2022/08/17 08:46:50;;;;;;;;;;;21.10;99.90;;;;;;5093106;28;20022;-65
2022/08/17 08:49:28;;;;;;;;;;;20.90;99.90;;;;;;5109430;28;19930;-65
2022/08/17 08:51:58;;;;;;;;;;;20.50;99.90;;;;;;5107693;28;19923;-64
2022/08/17 08:54:38;;;;;;;;;;;20.50;99.90;;;;;;5107600;28;19938;-65
2022/08/17 08:57:12;;;;;;;;;;;20.40;99.90;;;;;;5104414;28;20006;-65
2022/08/17 08:59:44;;;;;;;;;;;20.40;99.90;;;;;;5109637;28;20026;-64
2022/08/17 09:02:17;;;;;;;;;;;20.30;99.90;;;;;;5112064;28;19931;-64
2022/08/17 09:04:53;;;;;;;;;;;20.20;99.90;;;;;;5101577;28;19924;-65
2022/08/17 09:07:26;;;;;;;;;;;20.20;99.90;;;;;;5095351;28;19934;-64
2022/08/17 09:09:59;;;;;;;;;;;20.10;99.90;;;;;;5101320;28;20014;-65
2022/08/17 09:12:30;;;;;;;;;;;20.10;99.90;;;;;;5108132;28;19946;-64
2022/08/17 09:14:58;;;;;;;;;;;20.10;99.90;;;;;;5100138;28;20023;-65
2022/08/17 09:17:30;;;;;;;;;;;20.10;99.90;;;;;;5109787;28;19934;-65
2022/08/17 09:19:59;;;;;;;;;;;20.10;99.90;;;;;;5101697;28;20278;-65
2022/08/17 09:22:30;;;;;;;;;;;20.10;99.90;;;;;;5109462;28;20003;-64
2022/08/17 09:25:02;;;;;;;;;;;20.10;99.90;;;;;;5095936;28;19931;-65
2022/08/17 09:27:31;;;;;;;;;;;20.20;99.90;;;;;;5110114;28;20389;-65
2022/08/17 09:30:01;;;;;;;;;;;20.20;99.90;;;;;;5095393;28;19923;-66
2022/08/17 09:32:28;;;;;;;;;;;;;;;;;;5100970;28;19930;-66
2022/08/17 09:34:55;;;;;;;;;;;;;;;;;;5095060;28;19928;-66
2022/08/17 09:37:22;;;;;;;;;;;;;;;;;;5101501;28;19923;-65
2022/08/17 09:39:49;;;;;;;;;;;;;;;;;;5106839;28;19966;-65
2022/08/17 09:42:16;;;;;;;;;;;;;;;;;;5102321;28;19928;-65
2022/08/17 09:44:43;;;;;;;;;;;;;;;;;;5102251;28;20014;-65
2022/08/17 09:47:10;;;;;;;;;;;;;;;;;;5104949;28;19931;-64
2022/08/17 09:49:37;;;;;;;;;;;;;;;;;;5109595;28;19924;-65
2022/08/17 09:52:09;;;;;;;;;;;21.00;99.90;;;;;;5099106;28;19963;-66
2022/08/17 09:54:37;;;;;;;;;;;21.10;99.90;;;;;;5102924;28;19969;-65
2022/08/17 09:57:10;;;;;;;;;;;21.20;99.90;;;;;;5101272;28;19924;-65
2022/08/17 09:59:37;;;;;;;;;;;;;;;;;;5101157;28;20030;-65
2022/08/17 10:02:04;;;;;;;;;;;;;;;;;;5111035;28;20028;-65
2022/08/17 10:04:39;;;;;;;;;;;21.10;99.90;;;;;;5104749;28;19931;-65
2022/08/17 10:07:18;;;;;;;;;;;21.30;99.90;;;;;;5106948;28;19923;-65
2022/08/17 10:09:51;;;;;;;;;;;21.30;99.90;;;;;;5109763;28;21984;-65
2022/08/17 10:12:25;;;;;;;;;;;21.30;99.90;;;;;;5109469;28;20263;-66
2022/08/17 10:15:04;;;;;;;;;;;21.40;99.90;;;;;;5109140;28;20018;-65
2022/08/17 10:17:35;;;;;;;;;;;21.20;99.90;;;;;;5099087;28;19931;-64
2022/08/17 10:20:06;;;;;;;;;;;21.00;99.90;;;;;;5108848;28;19937;-65
2022/08/17 10:28:09;;;;;;;;;;;20.90;99.90;;;;;;5101746;28;19961;-66
2022/08/17 10:30:37;;;;;;;;;;;21.00;99.90;;;;;;5110641;28;20019;-66
2022/08/17 10:33:06;;;;;;;;;;;21.00;99.90;;;;;;5106457;28;20275;-66
2022/08/17 10:35:37;;;;;;;;;;;20.90;99.90;;;;;;5110376;28;20432;-66
2022/08/17 10:38:24;;;;;;;;;;;20.90;99.90;;;;;;5107692;28;20347;-65
2022/08/17 10:40:56;;;;;;;;;;;20.80;99.90;;;;;;5102449;28;19985;-65
2022/08/17 10:43:43;;;;;;;;;;;20.90;99.90;;;;;;5107231;28;19951;-65
2022/08/17 10:46:14;;;;;;;;;;;20.90;99.90;;;;;;5110455;28;19967;-65
2022/08/17 10:48:41;;;;;;;;;;;20.90;99.90;;;;;;5106317;28;19928;-65
2022/08/17 10:51:09;;;;;;;;;;;20.90;99.90;;;;;;5108988;28;19993;-65
2022/08/17 10:53:49;;;;;;;;;;;20.90;99.90;;;;;;5109879;28;19930;-65
2022/08/17 10:56:24;;;;;;;;;;;20.90;99.90;;;;;;5106922;28;19932;-65
2022/08/17 10:58:53;;;;;;;;;;;20.90;99.90;;;;;;5111237;28;20384;-65
2022/08/17 11:01:22;;;;;;;;;;;20.80;99.90;;;;;;5101875;28;19924;-65
2022/08/17 11:03:53;;;;;;;;;;;20.80;99.90;;;;;;5109040;28;20015;-65
2022/08/17 11:06:25;;;;;;;;;;;20.80;99.90;;;;;;5113317;28;20326;-65
2022/08/17 11:09:02;;;;;;;;;;;21.00;99.90;;;;;;5112850;28;19924;-66
2022/08/17 11:11:50;;;;;;;;;;;21.10;99.90;;;;;;5110205;28;20024;-65
2022/08/17 11:14:24;;;;;;;;;;;21.00;99.90;;;;;;5099849;28;19963;-65
2022/08/17 11:17:03;;;;;;;;;;;21.10;99.90;;;;;;5111902;28;20382;-66
2022/08/17 11:19:41;;;;;;;;;;;21.10;99.90;;;;;;5112036;28;19931;-65
2022/08/17 11:22:28;;;;;;;;;;;21.20;99.90;;;;;;5107541;28;19923;-65
2022/08/17 11:24:55;;;;;;;;;;;21.10;99.90;;;;;;5104544;28;19924;-65
2022/08/17 11:27:22;;;;;;;;;;;;;;;;;;5108036;28;19931;-65
2022/08/17 11:29:52;;;;;;;;;;;21.20;99.90;;;;;;5111884;28;20018;-65
2022/08/17 11:32:19;;;;;;;;;;;;;;;;;;5104608;28;20002;-65
2022/08/17 11:34:45;;;;;;;;;;;21.30;99.90;;;;;;5108194;28;20362;-66
2022/08/17 11:37:33;;;;;;;;;;;21.10;99.90;;;;;;5110848;28;20018;-65
2022/08/17 11:40:06;;;;;;;;;;;21.30;99.90;;;;;;5105247;28;19930;-65
2022/08/17 11:42:47;;;;;;;;;;;21.40;99.90;;;;;;5107745;28;20392;-66
2022/08/17 11:45:29;;;;;;;;;;;21.30;99.90;;;;;;5094492;28;20293;-65
2022/08/17 11:53:49;;;;;;;;;;;21.50;99.90;;;;;;5104247;28;19978;-66
2022/08/17 11:56:30;;;;;;;;;;;21.40;99.90;;;;;;5098754;28;20474;-65
2022/08/17 11:58:59;;;;;;;;;;;21.70;99.90;;;;;;5101670;28;19931;-64
2022/08/17 12:01:49;;;;;;;;;;;22.10;99.90;;;;;;5105982;28;20324;-65
2022/08/17 12:04:24;;;;;;;;;;;22.50;99.90;;;;;;5081716;28;19947;-66
2022/08/17 12:06:53;;;;;;;;;;;22.90;99.90;;;;;;5110114;28;19924;-65
2022/08/17 12:09:23;;;;;;;;;;;23.50;99.90;;;;;;5105421;28;19924;-65
2022/08/17 12:11:51;;;;;;;;;;;23.20;99.90;;;;;;5101385;28;20167;-65
2022/08/17 12:14:21;;;;;;;;;;;23.20;99.90;;;;;;5111000;28;20018;-65
2022/08/17 12:16:57;;;;;;;;;;;23.00;99.90;;;;;;5112339;28;19965;-66
2022/08/17 12:19:28;;;;;;;;;;;22.90;99.90;;;;;;5112484;28;20052;-65
2022/08/17 12:21:57;;;;;;;;;;;22.80;99.90;;;;;;5097768;28;19991;-66
2022/08/17 12:24:44;;;;;;;;;;;22.60;99.90;;;;;;5102540;28;19924;-65
2022/08/17 12:27:11;;;;;;;;;;;22.60;99.90;;;;;;5106411;28;20310;-66
2022/08/17 12:29:42;;;;;;;;;;;23.10;99.90;;;;;;5104835;28;20005;-65
2022/08/17 12:32:16;;;;;;;;;;;22.90;99.90;;;;;;5109206;28;20014;-65
2022/08/17 12:34:45;;;;;;;;;;;23.30;99.90;;;;;;5105931;28;20012;-66
2022/08/17 12:37:14;;;;;;;;;;;23.20;99.90;;;;;;5109752;28;20018;-66
2022/08/17 12:39:40;;;;;;;;;;;;;;;;;;5106732;28;20030;-66
2022/08/17 12:42:21;;;;;;;;;;;23.10;99.90;;;;;;5105046;28;19924;-66
2022/08/17 12:44:47;;;;;;;;;;;23.20;99.90;;;;;;5107702;28;19931;-66
2022/08/17 12:47:16;;;;;;;;;;;23.00;99.90;;;;;;5107320;28;19967;-64
2022/08/17 12:49:45;;;;;;;;;;;23.10;99.90;;;;;;5101003;28;20018;-65
2022/08/17 12:52:13;;;;;;;;;;;22.90;99.90;;;;;;5104364;28;20286;-65
2022/08/17 12:54:51;;;;;;;;;;;23.10;99.90;;;;;;5102902;28;19963;-65
2022/08/17 12:57:19;;;;;;;;;;;23.20;99.90;;;;;;5095280;28;20386;-64
2022/08/17 12:59:48;;;;;;;;;;;23.20;99.90;;;;;;5093334;28;19932;-65
2022/08/17 13:02:33;;;;;;;;;;;22.60;99.90;;;;;;5108969;28;19992;-65
2022/08/17 13:05:01;;;;;;;;;;;22.70;99.90;;;;;;5082093;28;20342;-66
2022/08/17 13:07:29;;;;;;;;;;;23.00;99.90;;;;;;5105520;28;19935;-65
2022/08/17 13:09:56;;;;;;;;;;;22.90;99.90;;;;;;5099791;28;20026;-65
2022/08/17 13:12:27;;;;;;;;;;;22.60;99.90;;;;;;5101411;28;20022;-65
2022/08/17 13:14:56;;;;;;;;;;;22.70;99.90;;;;;;5108989;28;19959;-64
2022/08/17 13:17:26;;;;;;;;;;;23.00;99.90;;;;;;5102064;28;20014;-65
2022/08/17 13:19:53;;;;;;;;;;;22.70;99.90;;;;;;5106297;28;20389;-65
2022/08/17 13:22:23;;;;;;;;;;;22.90;99.90;;;;;;5106770;28;19943;-65
2022/08/17 13:24:53;;;;;;;;;;;22.90;99.90;;;;;;5103202;28;20480;-65
2022/08/17 13:27:21;;;;;;;;;;;23.00;99.90;;;;;;5100793;28;19932;-65
2022/08/17 13:29:50;;;;;;;;;;;22.60;99.90;;;;;;5098931;28;20018;-65
2022/08/17 13:32:18;;;;;;;;;;;22.40;99.90;;;;;;5104838;28;19923;-64
2022/08/17 13:34:47;;;;;;;;;;;22.20;99.90;;;;;;5105405;28;19924;-65
2022/08/17 13:37:27;;;;;;;;;;;22.10;99.90;;;;;;5099057;28;19930;-65
2022/08/17 13:39:55;;;;;;;;;;;21.90;99.90;;;;;;5103760;28;20383;-65
2022/08/17 13:42:33;;;;;;;;;;;21.90;99.90;;;;;;5106743;28;20018;-66
2022/08/17 13:45:00;;;;;;;;;;;21.90;99.90;;;;;;5097611;28;20340;-65
2022/08/17 13:47:28;;;;;;;;;;;21.90;99.90;;;;;;5105797;28;19946;-65
2022/08/17 13:49:55;;;;;;;;;;;21.90;99.90;;;;;;5101156;28;20055;-66
2022/08/17 13:52:39;;;;;;;;;;;21.80;99.90;;;;;;5099516;28;19939;-64
2022/08/17 13:55:08;;;;;;;;;;;21.80;99.90;;;;;;5089865;28;20590;-65
2022/08/17 13:57:35;;;;;;;;;;;21.70;99.90;;;;;;5099336;28;20011;-65
2022/08/17 14:00:10;;;;;;;;;;;21.70;99.90;;;;;;5094499;28;19924;-65
2022/08/17 14:02:37;;;;;;;;;;;21.80;99.90;;;;;;5106137;28;20428;-65
2022/08/17 14:05:04;;;;;;;;;;;21.70;99.90;;;;;;5097434;28;19930;-65
2022/08/17 14:07:32;;;;;;;;;;;21.50;99.90;;;;;;5103326;28;20015;-65
2022/08/17 14:10:02;;;;;;;;;;;21.30;99.90;;;;;;5109954;28;19928;-65
2022/08/17 14:12:30;;;;;;;;;;;21.10;99.90;;;;;;5105299;28;19966;-66
2022/08/17 14:14:57;;;;;;;;;;;21.10;99.90;;;;;;5109876;28;19931;-65
2022/08/17 14:17:24;;;;;;;;;;;21.00;99.90;;;;;;5108542;28;20046;-65
2022/08/17 14:19:51;;;;;;;;;;;21.10;99.90;;;;;;5098293;28;19970;-65
2022/08/17 14:22:22;;;;;;;;;;;21.30;99.90;;;;;;5107223;28;19934;-65
2022/08/17 14:24:50;;;;;;;;;;;21.30;99.90;;;;;;5108206;28;19945;-65
2022/08/17 14:27:19;;;;;;;;;;;21.20;99.90;;;;;;5109388;28;19932;-65
2022/08/17 14:29:46;;;;;;;;;;;21.20;99.90;;;;;;5109233;28;19923;-66
2022/08/17 14:32:16;;;;;;;;;;;21.10;99.90;;;;;;5109415;28;20398;-63
2022/08/17 14:34:44;;;;;;;;;;;21.10;99.90;;;;;;5106199;28;20394;-65
2022/08/17 14:37:11;;;;;;;;;;;21.20;99.90;;;;;;5107187;28;20034;-65
2022/08/17 14:39:37;;;;;;;;;;;21.30;99.90;;;;;;5101107;28;19990;-65
2022/08/17 14:42:04;;;;;;;;;;;21.40;99.90;;;;;;5109170;28;20014;-65
2022/08/17 14:44:32;;;;;;;;;;;21.10;99.90;;;;;;5108912;28;20423;-65
2022/08/17 14:46:59;;;;;;;;;;;21.00;99.90;;;;;;5107368;28;20273;-66
2022/08/17 14:49:26;;;;;;;;;;;20.90;99.90;;;;;;5107721;28;19930;-65
2022/08/17 14:51:53;;;;;;;;;;;20.80;99.90;;;;;;5109095;28;20385;-65
2022/08/17 14:54:20;;;;;;;;;;;20.90;99.90;;;;;;5102836;28;19963;-65
2022/08/17 14:56:46;;;;;;;;;;;21.20;99.90;;;;;;5103791;28;19924;-64
2022/08/17 14:59:14;;;;;;;;;;;21.70;99.90;;;;;;5108389;28;20030;-65
2022/08/17 15:01:46;;;;;;;;;;;21.60;99.90;;;;;;5108036;28;20294;-65
2022/08/17 15:04:16;;;;;;;;;;;22.10;99.90;;;;;;5108355;28;20351;-64
2022/08/17 15:06:42;;;;;;;;;;;21.80;99.90;;;;;;5110679;28;20385;-65